sensor_id;sensor_type;location;lat;lon;timestamp;P1;durP1;ratioP1;P2;durP2;ratioP2
55465;SDS011;41329;41.594;23.810;2022-08-03T00:01:31;0.90;;;0.90;;
55465;SDS011;41329;41.594;23.810;2022-08-03T00:03:57;1.63;;;1.30;;
55465;SDS011;41329;41.594;23.810;2022-08-03T00:06:23;1.30;;;1.20;;
55465;SDS011;41329;41.594;23.810;2022-08-03T00:08:48;1.52;;;1.05;;
55465;SDS011;41329;41.594;23.810;2022-08-03T00:11:14;1.40;;;1.10;;
55465;SDS011;41329;41.594;23.810;2022-08-03T00:13:39;1.73;;;1.35;;
55465;SDS011;41329;41.594;23.810;2022-08-03T00:16:04;1.65;;;1.52;;
55465;SDS011;41329;41.594;23.810;2022-08-03T00:18:30;1.17;;;1.13;;
55465;SDS011;41329;41.594;23.810;2022-08-03T00:20:55;1.15;;;1.05;;
55465;SDS011;41329;41.594;23.810;2022-08-03T00:23:21;1.40;;;1.30;;
55465;SDS011;41329;41.594;23.810;2022-08-03T00:25:46;1.40;;;1.30;;
55465;SDS011;41329;41.594;23.810;2022-08-03T00:28:12;1.17;;;1.17;;
55465;SDS011;41329;41.594;23.810;2022-08-03T00:30:37;1.33;;;1.30;;
55465;SDS011;41329;41.594;23.810;2022-08-03T00:33:03;1.90;;;1.80;;
55465;SDS011;41329;41.594;23.810;2022-08-03T00:35:29;6.35;;;2.38;;
55465;SDS011;41329;41.594;23.810;2022-08-03T00:37:55;1.80;;;1.70;;
55465;SDS011;41329;41.594;23.810;2022-08-03T00:40:20;1.70;;;1.60;;
55465;SDS011;41329;41.594;23.810;2022-08-03T00:45:21;1.90;;;1.80;;
55465;SDS011;41329;41.594;23.810;2022-08-03T00:47:48;1.75;;;1.73;;
55465;SDS011;41329;41.594;23.810;2022-08-03T00:50:14;2.50;;;1.70;;
55465;SDS011;41329;41.594;23.810;2022-08-03T00:52:41;1.77;;;1.48;;
55465;SDS011;41329;41.594;23.810;2022-08-03T00:55:06;1.60;;;1.48;;
55465;SDS011;41329;41.594;23.810;2022-08-03T00:57:33;1.58;;;1.48;;
55465;SDS011;41329;41.594;23.810;2022-08-03T00:59:59;1.58;;;1.40;;
55465;SDS011;41329;41.594;23.810;2022-08-03T01:02:26;1.30;;;1.30;;
55465;SDS011;41329;41.594;23.810;2022-08-03T01:04:52;1.30;;;1.20;;
55465;SDS011;41329;41.594;23.810;2022-08-03T01:20:46;1.15;;;1.00;;
55465;SDS011;41329;41.594;23.810;2022-08-03T01:23:34;1.33;;;1.20;;
55465;SDS011;41329;41.594;23.810;2022-08-03T01:32:02;1.20;;;1.10;;
55465;SDS011;41329;41.594;23.810;2022-08-03T01:34:33;1.38;;;1.27;;
55465;SDS011;41329;41.594;23.810;2022-08-03T01:37:04;1.10;;;1.10;;
55465;SDS011;41329;41.594;23.810;2022-08-03T01:39:33;1.80;;;1.15;;
55465;SDS011;41329;41.594;23.810;2022-08-03T01:42:05;1.30;;;1.20;;
55465;SDS011;41329;41.594;23.810;2022-08-03T01:44:37;1.45;;;1.20;;
55465;SDS011;41329;41.594;23.810;2022-08-03T01:47:06;2.55;;;1.42;;
55465;SDS011;41329;41.594;23.810;2022-08-03T01:49:34;2.47;;;2.38;;
55465;SDS011;41329;41.594;23.810;2022-08-03T01:52:04;2.72;;;2.53;;
55465;SDS011;41329;41.594;23.810;2022-08-03T01:54:31;3.03;;;2.80;;
55465;SDS011;41329;41.594;23.810;2022-08-03T01:59:26;2.65;;;2.55;;
55465;SDS011;41329;41.594;23.810;2022-08-03T02:01:54;3.85;;;3.55;;
55465;SDS011;41329;41.594;23.810;2022-08-03T02:04:22;2.55;;;2.45;;
55465;SDS011;41329;41.594;23.810;2022-08-03T02:06:50;5.05;;;2.45;;
55465;SDS011;41329;41.594;23.810;2022-08-03T02:09:18;2.58;;;2.10;;
55465;SDS011;41329;41.594;23.810;2022-08-03T02:11:46;1.88;;;1.75;;
55465;SDS011;41329;41.594;23.810;2022-08-03T02:14:14;1.80;;;1.65;;
55465;SDS011;41329;41.594;23.810;2022-08-03T02:16:42;1.85;;;1.75;;
55465;SDS011;41329;41.594;23.810;2022-08-03T02:19:10;1.88;;;1.77;;
55465;SDS011;41329;41.594;23.810;2022-08-03T02:21:36;1.92;;;1.80;;
55465;SDS011;41329;41.594;23.810;2022-08-03T02:24:02;2.17;;;2.08;;
55465;SDS011;41329;41.594;23.810;2022-08-03T02:26:29;1.88;;;1.50;;
55465;SDS011;41329;41.594;23.810;2022-08-03T02:28:56;1.77;;;1.67;;
55465;SDS011;41329;41.594;23.810;2022-08-03T02:31:27;1.98;;;1.88;;
55465;SDS011;41329;41.594;23.810;2022-08-03T02:33:59;1.58;;;1.55;;
55465;SDS011;41329;41.594;23.810;2022-08-03T02:36:29;1.20;;;1.20;;
55465;SDS011;41329;41.594;23.810;2022-08-03T02:38:59;1.25;;;1.15;;
55465;SDS011;41329;41.594;23.810;2022-08-03T02:41:29;1.50;;;1.40;;
55465;SDS011;41329;41.594;23.810;2022-08-03T02:43:57;1.70;;;1.58;;
55465;SDS011;41329;41.594;23.810;2022-08-03T02:46:30;1.30;;;1.30;;
55465;SDS011;41329;41.594;23.810;2022-08-03T02:48:59;1.55;;;1.45;;
55465;SDS011;41329;41.594;23.810;2022-08-03T02:51:27;1.48;;;1.38;;
55465;SDS011;41329;41.594;23.810;2022-08-03T02:53:55;1.20;;;1.20;;
55465;SDS011;41329;41.594;23.810;2022-08-03T02:56:24;1.77;;;1.67;;
55465;SDS011;41329;41.594;23.810;2022-08-03T02:58:51;1.65;;;1.55;;
55465;SDS011;41329;41.594;23.810;2022-08-03T03:01:21;1.40;;;1.30;;
55465;SDS011;41329;41.594;23.810;2022-08-03T03:03:48;1.42;;;1.33;;
55465;SDS011;41329;41.594;23.810;2022-08-03T03:06:16;1.50;;;1.50;;
55465;SDS011;41329;41.594;23.810;2022-08-03T03:08:43;1.52;;;1.42;;
55465;SDS011;41329;41.594;23.810;2022-08-03T03:11:10;1.50;;;1.42;;
55465;SDS011;41329;41.594;23.810;2022-08-03T03:13:38;1.60;;;1.30;;
55465;SDS011;41329;41.594;23.810;2022-08-03T03:16:05;1.50;;;1.40;;
55465;SDS011;41329;41.594;23.810;2022-08-03T03:18:32;1.40;;;1.30;;
55465;SDS011;41329;41.594;23.810;2022-08-03T03:20:59;1.50;;;1.40;;
55465;SDS011;41329;41.594;23.810;2022-08-03T03:23:28;1.45;;;1.17;;
55465;SDS011;41329;41.594;23.810;2022-08-03T03:25:54;2.03;;;1.20;;
55465;SDS011;41329;41.594;23.810;2022-08-03T03:28:22;1.35;;;1.30;;
55465;SDS011;41329;41.594;23.810;2022-08-03T03:30:49;2.03;;;1.80;;
55465;SDS011;41329;41.594;23.810;2022-08-03T03:33:14;5.03;;;2.72;;
55465;SDS011;41329;41.594;23.810;2022-08-03T03:35:41;2.55;;;1.77;;
55465;SDS011;41329;41.594;23.810;2022-08-03T03:38:08;2.85;;;2.40;;
55465;SDS011;41329;41.594;23.810;2022-08-03T03:40:34;5.70;;;2.20;;
55465;SDS011;41329;41.594;23.810;2022-08-03T03:43:00;4.13;;;2.38;;
55465;SDS011;41329;41.594;23.810;2022-08-03T03:45:26;2.55;;;2.28;;
55465;SDS011;41329;41.594;23.810;2022-08-03T03:47:55;2.30;;;2.15;;
55465;SDS011;41329;41.594;23.810;2022-08-03T03:50:20;3.63;;;3.42;;
55465;SDS011;41329;41.594;23.810;2022-08-03T03:52:46;3.05;;;2.85;;
55465;SDS011;41329;41.594;23.810;2022-08-03T03:55:16;2.58;;;2.47;;
55465;SDS011;41329;41.594;23.810;2022-08-03T03:57:42;2.08;;;1.98;;
55465;SDS011;41329;41.594;23.810;2022-08-03T04:00:08;3.40;;;3.20;;
55465;SDS011;41329;41.594;23.810;2022-08-03T04:02:34;5.00;;;4.70;;
55465;SDS011;41329;41.594;23.810;2022-08-03T04:05:00;4.22;;;4.03;;
55465;SDS011;41329;41.594;23.810;2022-08-03T04:10:53;2.90;;;2.70;;
55465;SDS011;41329;41.594;23.810;2022-08-03T04:13:33;3.50;;;3.30;;
55465;SDS011;41329;41.594;23.810;2022-08-03T04:16:01;2.63;;;2.42;;
55465;SDS011;41329;41.594;23.810;2022-08-03T04:18:30;3.70;;;3.40;;
55465;SDS011;41329;41.594;23.810;2022-08-03T04:20:58;3.83;;;3.38;;
55465;SDS011;41329;41.594;23.810;2022-08-03T04:23:27;2.97;;;2.78;;
55465;SDS011;41329;41.594;23.810;2022-08-03T04:25:57;2.55;;;2.45;;
55465;SDS011;41329;41.594;23.810;2022-08-03T04:28:26;2.63;;;2.42;;
55465;SDS011;41329;41.594;23.810;2022-08-03T04:30:52;2.42;;;2.17;;
55465;SDS011;41329;41.594;23.810;2022-08-03T04:33:19;2.03;;;1.92;;
55465;SDS011;41329;41.594;23.810;2022-08-03T04:35:47;2.03;;;1.90;;
55465;SDS011;41329;41.594;23.810;2022-08-03T04:38:14;2.00;;;1.90;;
55465;SDS011;41329;41.594;23.810;2022-08-03T04:40:42;2.45;;;1.92;;
55465;SDS011;41329;41.594;23.810;2022-08-03T04:43:10;2.25;;;2.15;;
55465;SDS011;41329;41.594;23.810;2022-08-03T04:45:39;2.05;;;1.95;;
55465;SDS011;41329;41.594;23.810;2022-08-03T04:48:05;2.13;;;2.03;;
55465;SDS011;41329;41.594;23.810;2022-08-03T04:50:31;2.08;;;1.90;;
55465;SDS011;41329;41.594;23.810;2022-08-03T04:52:58;2.05;;;1.95;;
55465;SDS011;41329;41.594;23.810;2022-08-03T04:55:27;2.15;;;2.05;;
55465;SDS011;41329;41.594;23.810;2022-08-03T04:57:54;3.22;;;3.03;;
55465;SDS011;41329;41.594;23.810;2022-08-03T05:00:20;3.25;;;3.15;;
55465;SDS011;41329;41.594;23.810;2022-08-03T05:02:46;4.43;;;4.13;;
55465;SDS011;41329;41.594;23.810;2022-08-03T05:05:11;5.82;;;5.25;;
55465;SDS011;41329;41.594;23.810;2022-08-03T05:07:37;4.07;;;3.65;;
55465;SDS011;41329;41.594;23.810;2022-08-03T05:10:03;3.20;;;2.90;;
55465;SDS011;41329;41.594;23.810;2022-08-03T05:12:30;2.60;;;2.50;;
55465;SDS011;41329;41.594;23.810;2022-08-03T05:14:56;2.53;;;2.25;;
55465;SDS011;41329;41.594;23.810;2022-08-03T05:17:21;2.38;;;2.28;;
55465;SDS011;41329;41.594;23.810;2022-08-03T05:19:47;2.47;;;2.38;;
55465;SDS011;41329;41.594;23.810;2022-08-03T05:22:12;2.35;;;2.25;;
55465;SDS011;41329;41.594;23.810;2022-08-03T05:24:37;2.65;;;2.55;;
55465;SDS011;41329;41.594;23.810;2022-08-03T05:27:03;2.65;;;2.15;;
55465;SDS011;41329;41.594;23.810;2022-08-03T05:29:28;2.30;;;2.17;;
55465;SDS011;41329;41.594;23.810;2022-08-03T05:31:54;2.38;;;2.00;;
55465;SDS011;41329;41.594;23.810;2022-08-03T05:34:20;2.88;;;2.50;;
55465;SDS011;41329;41.594;23.810;2022-08-03T05:36:45;2.35;;;2.15;;
55465;SDS011;41329;41.594;23.810;2022-08-03T05:39:11;3.75;;;3.45;;
55465;SDS011;41329;41.594;23.810;2022-08-03T05:41:37;6.47;;;6.00;;
55465;SDS011;41329;41.594;23.810;2022-08-03T05:44:02;6.38;;;5.85;;
55465;SDS011;41329;41.594;23.810;2022-08-03T05:46:28;6.15;;;5.57;;
55465;SDS011;41329;41.594;23.810;2022-08-03T05:48:53;6.18;;;5.63;;
55465;SDS011;41329;41.594;23.810;2022-08-03T05:51:19;6.75;;;6.18;;
55465;SDS011;41329;41.594;23.810;2022-08-03T05:53:44;4.32;;;4.13;;
55465;SDS011;41329;41.594;23.810;2022-08-03T05:56:10;14.65;;;13.55;;
55465;SDS011;41329;41.594;23.810;2022-08-03T05:58:36;3.92;;;2.80;;
55465;SDS011;41329;41.594;23.810;2022-08-03T06:01:02;5.78;;;2.78;;
55465;SDS011;41329;41.594;23.810;2022-08-03T06:03:27;3.17;;;2.80;;
55465;SDS011;41329;41.594;23.810;2022-08-03T06:05:53;2.63;;;2.40;;
55465;SDS011;41329;41.594;23.810;2022-08-03T06:08:22;2.55;;;2.35;;
55465;SDS011;41329;41.594;23.810;2022-08-03T06:10:48;1.67;;;1.58;;
55465;SDS011;41329;41.594;23.810;2022-08-03T06:13:14;3.35;;;3.05;;
55465;SDS011;41329;41.594;23.810;2022-08-03T06:15:40;2.60;;;2.40;;
55465;SDS011;41329;41.594;23.810;2022-08-03T06:18:05;3.00;;;2.80;;
55465;SDS011;41329;41.594;23.810;2022-08-03T06:20:32;4.18;;;2.40;;
55465;SDS011;41329;41.594;23.810;2022-08-03T06:22:57;1.92;;;1.77;;
55465;SDS011;41329;41.594;23.810;2022-08-03T06:25:24;2.60;;;2.50;;
55465;SDS011;41329;41.594;23.810;2022-08-03T06:27:50;1.70;;;1.60;;
55465;SDS011;41329;41.594;23.810;2022-08-03T06:30:16;2.65;;;2.45;;
55465;SDS011;41329;41.594;23.810;2022-08-03T06:32:43;2.38;;;2.17;;
55465;SDS011;41329;41.594;23.810;2022-08-03T06:35:08;2.38;;;2.22;;
55465;SDS011;41329;41.594;23.810;2022-08-03T06:37:44;2.25;;;2.10;;
55465;SDS011;41329;41.594;23.810;2022-08-03T06:40:15;2.67;;;2.25;;
55465;SDS011;41329;41.594;23.810;2022-08-03T06:42:42;2.35;;;2.25;;
55465;SDS011;41329;41.594;23.810;2022-08-03T06:45:08;2.50;;;2.20;;
55465;SDS011;41329;41.594;23.810;2022-08-03T06:47:39;2.10;;;2.00;;
55465;SDS011;41329;41.594;23.810;2022-08-03T06:50:05;2.60;;;1.60;;
55465;SDS011;41329;41.594;23.810;2022-08-03T06:52:32;2.28;;;2.10;;
55465;SDS011;41329;41.594;23.810;2022-08-03T06:54:57;2.28;;;1.58;;
55465;SDS011;41329;41.594;23.810;2022-08-03T06:57:23;1.92;;;1.83;;
55465;SDS011;41329;41.594;23.810;2022-08-03T06:59:49;3.03;;;2.83;;
55465;SDS011;41329;41.594;23.810;2022-08-03T07:02:15;2.28;;;2.15;;
55465;SDS011;41329;41.594;23.810;2022-08-03T07:04:42;1.95;;;1.85;;
55465;SDS011;41329;41.594;23.810;2022-08-03T07:07:07;3.78;;;2.50;;
55465;SDS011;41329;41.594;23.810;2022-08-03T07:09:33;2.05;;;1.95;;
55465;SDS011;41329;41.594;23.810;2022-08-03T07:11:58;3.28;;;2.28;;
55465;SDS011;41329;41.594;23.810;2022-08-03T07:14:26;10.40;;;2.47;;
55465;SDS011;41329;41.594;23.810;2022-08-03T07:16:52;7.82;;;2.33;;
55465;SDS011;41329;41.594;23.810;2022-08-03T07:19:17;3.90;;;3.55;;
55465;SDS011;41329;41.594;23.810;2022-08-03T07:21:42;3.22;;;2.08;;
55465;SDS011;41329;41.594;23.810;2022-08-03T07:24:09;2.50;;;1.85;;
55465;SDS011;41329;41.594;23.810;2022-08-03T07:26:35;2.72;;;1.88;;
55465;SDS011;41329;41.594;23.810;2022-08-03T07:29:00;2.20;;;2.10;;
55465;SDS011;41329;41.594;23.810;2022-08-03T07:31:26;2.05;;;1.95;;
55465;SDS011;41329;41.594;23.810;2022-08-03T07:33:52;2.00;;;1.90;;
55465;SDS011;41329;41.594;23.810;2022-08-03T07:36:17;2.10;;;2.00;;
55465;SDS011;41329;41.594;23.810;2022-08-03T07:38:43;2.28;;;1.92;;
55465;SDS011;41329;41.594;23.810;2022-08-03T07:41:08;2.45;;;2.35;;
55465;SDS011;41329;41.594;23.810;2022-08-03T07:43:33;2.92;;;2.08;;
55465;SDS011;41329;41.594;23.810;2022-08-03T07:45:59;1.90;;;1.77;;
55465;SDS011;41329;41.594;23.810;2022-08-03T07:48:24;1.63;;;1.52;;
55465;SDS011;41329;41.594;23.810;2022-08-03T07:50:50;2.28;;;1.88;;
55465;SDS011;41329;41.594;23.810;2022-08-03T07:53:16;4.07;;;2.00;;
55465;SDS011;41329;41.594;23.810;2022-08-03T07:55:42;2.25;;;2.05;;
55465;SDS011;41329;41.594;23.810;2022-08-03T07:58:09;1.77;;;1.67;;
55465;SDS011;41329;41.594;23.810;2022-08-03T08:00:39;3.28;;;1.73;;
55465;SDS011;41329;41.594;23.810;2022-08-03T08:03:05;1.75;;;1.65;;
55465;SDS011;41329;41.594;23.810;2022-08-03T08:05:31;2.00;;;1.90;;
55465;SDS011;41329;41.594;23.810;2022-08-03T08:07:56;2.40;;;2.25;;
55465;SDS011;41329;41.594;23.810;2022-08-03T08:10:22;2.85;;;2.65;;
55465;SDS011;41329;41.594;23.810;2022-08-03T08:12:48;3.97;;;3.67;;
55465;SDS011;41329;41.594;23.810;2022-08-03T08:15:13;5.07;;;4.78;;
55465;SDS011;41329;41.594;23.810;2022-08-03T08:17:46;3.30;;;2.63;;
55465;SDS011;41329;41.594;23.810;2022-08-03T08:20:17;1.95;;;1.85;;
55465;SDS011;41329;41.594;23.810;2022-08-03T08:22:50;2.58;;;1.75;;
55465;SDS011;41329;41.594;23.810;2022-08-03T08:25:16;3.38;;;3.17;;
55465;SDS011;41329;41.594;23.810;2022-08-03T08:27:46;5.15;;;2.10;;
55465;SDS011;41329;41.594;23.810;2022-08-03T08:30:13;2.35;;;1.67;;
55465;SDS011;41329;41.594;23.810;2022-08-03T08:32:40;2.08;;;1.88;;
55465;SDS011;41329;41.594;23.810;2022-08-03T08:35:06;2.38;;;1.70;;
55465;SDS011;41329;41.594;23.810;2022-08-03T08:37:32;1.90;;;1.80;;
55465;SDS011;41329;41.594;23.810;2022-08-03T08:39:58;1.60;;;1.50;;
55465;SDS011;41329;41.594;23.810;2022-08-03T08:42:23;1.50;;;1.50;;
55465;SDS011;41329;41.594;23.810;2022-08-03T08:44:49;1.45;;;1.40;;
55465;SDS011;41329;41.594;23.810;2022-08-03T08:47:16;1.50;;;1.40;;
55465;SDS011;41329;41.594;23.810;2022-08-03T08:49:53;3.17;;;1.73;;
55465;SDS011;41329;41.594;23.810;2022-08-03T08:53:01;2.78;;;1.60;;
55465;SDS011;41329;41.594;23.810;2022-08-03T08:55:12;2.10;;;1.50;;
55465;SDS011;41329;41.594;23.810;2022-08-03T08:57:46;2.30;;;1.40;;
55465;SDS011;41329;41.594;23.810;2022-08-03T09:00:17;1.98;;;1.75;;
55465;SDS011;41329;41.594;23.810;2022-08-03T09:02:43;3.15;;;2.20;;
55465;SDS011;41329;41.594;23.810;2022-08-03T09:05:10;1.67;;;1.55;;
55465;SDS011;41329;41.594;23.810;2022-08-03T09:07:38;1.80;;;1.70;;
55465;SDS011;41329;41.594;23.810;2022-08-03T09:10:05;2.33;;;2.20;;
55465;SDS011;41329;41.594;23.810;2022-08-03T09:12:36;1.67;;;1.58;;
55465;SDS011;41329;41.594;23.810;2022-08-03T09:17:46;1.25;;;1.20;;
55465;SDS011;41329;41.594;23.810;2022-08-03T09:20:11;1.05;;;0.90;;
55465;SDS011;41329;41.594;23.810;2022-08-03T09:25:42;0.98;;;0.98;;
55465;SDS011;41329;41.594;23.810;2022-08-03T09:28:09;1.00;;;0.80;;
55465;SDS011;41329;41.594;23.810;2022-08-03T09:30:43;1.33;;;1.15;;
55465;SDS011;41329;41.594;23.810;2022-08-03T09:33:21;4.43;;;1.00;;
55465;SDS011;41329;41.594;23.810;2022-08-03T09:35:47;0.85;;;0.85;;
55465;SDS011;41329;41.594;23.810;2022-08-03T09:38:17;0.80;;;0.80;;
55465;SDS011;41329;41.594;23.810;2022-08-03T09:40:52;0.95;;;0.90;;
55465;SDS011;41329;41.594;23.810;2022-08-03T09:43:19;1.08;;;0.80;;
55465;SDS011;41329;41.594;23.810;2022-08-03T09:45:45;0.80;;;0.80;;
55465;SDS011;41329;41.594;23.810;2022-08-03T09:48:24;0.75;;;0.75;;
55465;SDS011;41329;41.594;23.810;2022-08-03T09:50:52;1.23;;;0.80;;
55465;SDS011;41329;41.594;23.810;2022-08-03T09:53:18;0.80;;;0.80;;
55465;SDS011;41329;41.594;23.810;2022-08-03T09:55:54;0.70;;;0.70;;
55465;SDS011;41329;41.594;23.810;2022-08-03T09:58:24;1.02;;;0.90;;
55465;SDS011;41329;41.594;23.810;2022-08-03T10:01:01;0.80;;;0.80;;
55465;SDS011;41329;41.594;23.810;2022-08-03T10:03:29;1.05;;;0.70;;
55465;SDS011;41329;41.594;23.810;2022-08-03T10:05:56;0.95;;;0.80;;
55465;SDS011;41329;41.594;23.810;2022-08-03T10:08:22;1.52;;;0.88;;
55465;SDS011;41329;41.594;23.810;2022-08-03T10:10:49;1.02;;;0.85;;
55465;SDS011;41329;41.594;23.810;2022-08-03T10:13:19;1.08;;;0.70;;
55465;SDS011;41329;41.594;23.810;2022-08-03T10:15:46;1.95;;;0.77;;
55465;SDS011;41329;41.594;23.810;2022-08-03T10:18:12;0.77;;;0.77;;
55465;SDS011;41329;41.594;23.810;2022-08-03T10:20:45;0.73;;;0.73;;
55465;SDS011;41329;41.594;23.810;2022-08-03T10:23:16;1.38;;;0.90;;
55465;SDS011;41329;41.594;23.810;2022-08-03T10:25:44;0.80;;;0.80;;
55465;SDS011;41329;41.594;23.810;2022-08-03T10:28:12;1.42;;;0.80;;
55465;SDS011;41329;41.594;23.810;2022-08-03T10:30:43;1.65;;;0.80;;
55465;SDS011;41329;41.594;23.810;2022-08-03T10:35:46;0.85;;;0.70;;
55465;SDS011;41329;41.594;23.810;2022-08-03T10:38:19;1.33;;;0.80;;
55465;SDS011;41329;41.594;23.810;2022-08-03T10:40:51;0.80;;;0.80;;
55465;SDS011;41329;41.594;23.810;2022-08-03T10:43:26;0.80;;;0.80;;
55465;SDS011;41329;41.594;23.810;2022-08-03T10:45:58;1.10;;;1.00;;
55465;SDS011;41329;41.594;23.810;2022-08-03T10:48:25;1.55;;;1.10;;
55465;SDS011;41329;41.594;23.810;2022-08-03T10:50:51;1.10;;;1.10;;
55465;SDS011;41329;41.594;23.810;2022-08-03T10:53:33;1.35;;;1.30;;
55465;SDS011;41329;41.594;23.810;2022-08-03T10:56:03;1.38;;;1.00;;
55465;SDS011;41329;41.594;23.810;2022-08-03T10:58:49;1.10;;;1.00;;
55465;SDS011;41329;41.594;23.810;2022-08-03T11:01:18;1.33;;;1.10;;
55465;SDS011;41329;41.594;23.810;2022-08-03T11:06:29;1.30;;;1.10;;
55465;SDS011;41329;41.594;23.810;2022-08-03T11:11:46;1.27;;;1.17;;
55465;SDS011;41329;41.594;23.810;2022-08-03T11:14:15;1.38;;;1.23;;
55465;SDS011;41329;41.594;23.810;2022-08-03T11:16:47;0.80;;;0.80;;
55465;SDS011;41329;41.594;23.810;2022-08-03T11:19:15;1.10;;;1.00;;
55465;SDS011;41329;41.594;23.810;2022-08-03T11:30:07;1.05;;;1.05;;
55465;SDS011;41329;41.594;23.810;2022-08-03T11:43:05;1.23;;;0.77;;
55465;SDS011;41329;41.594;23.810;2022-08-03T11:46:07;0.77;;;0.77;;
55465;SDS011;41329;41.594;23.810;2022-08-03T11:48:40;1.05;;;0.93;;
55465;SDS011;41329;41.594;23.810;2022-08-03T11:51:21;1.42;;;0.60;;
55465;SDS011;41329;41.594;23.810;2022-08-03T11:53:54;0.70;;;0.70;;
55465;SDS011;41329;41.594;23.810;2022-08-03T11:56:21;0.88;;;0.88;;
55465;SDS011;41329;41.594;23.810;2022-08-03T11:58:47;0.80;;;0.80;;
55465;SDS011;41329;41.594;23.810;2022-08-03T12:01:14;0.88;;;0.73;;
55465;SDS011;41329;41.594;23.810;2022-08-03T12:03:41;0.80;;;0.80;;
55465;SDS011;41329;41.594;23.810;2022-08-03T12:06:10;0.88;;;0.70;;
55465;SDS011;41329;41.594;23.810;2022-08-03T12:08:38;0.70;;;0.70;;
55465;SDS011;41329;41.594;23.810;2022-08-03T12:11:05;0.93;;;0.70;;
55465;SDS011;41329;41.594;23.810;2022-08-03T12:16:09;1.00;;;0.70;;
55465;SDS011;41329;41.594;23.810;2022-08-03T12:18:40;1.20;;;0.80;;
55465;SDS011;41329;41.594;23.810;2022-08-03T12:21:10;0.90;;;0.80;;
55465;SDS011;41329;41.594;23.810;2022-08-03T12:26:05;0.60;;;0.60;;
55465;SDS011;41329;41.594;23.810;2022-08-03T12:28:33;2.22;;;0.60;;
55465;SDS011;41329;41.594;23.810;2022-08-03T12:31:02;0.82;;;0.82;;
55465;SDS011;41329;41.594;23.810;2022-08-03T12:36:21;0.88;;;0.88;;
55465;SDS011;41329;41.594;23.810;2022-08-03T12:38:53;0.63;;;0.63;;
55465;SDS011;41329;41.594;23.810;2022-08-03T12:41:26;0.70;;;0.70;;
55465;SDS011;41329;41.594;23.810;2022-08-03T12:43:54;1.58;;;0.95;;
55465;SDS011;41329;41.594;23.810;2022-08-03T12:46:19;0.80;;;0.80;;
55465;SDS011;41329;41.594;23.810;2022-08-03T12:54:08;1.58;;;1.30;;
55465;SDS011;41329;41.594;23.810;2022-08-03T12:59:32;1.27;;;1.17;;
55465;SDS011;41329;41.594;23.810;2022-08-03T13:02:02;1.23;;;0.80;;
55465;SDS011;41329;41.594;23.810;2022-08-03T13:09:27;2.03;;;1.20;;
55465;SDS011;41329;41.594;23.810;2022-08-03T13:12:10;1.73;;;0.95;;
55465;SDS011;41329;41.594;23.810;2022-08-03T13:14:40;4.38;;;1.48;;
55465;SDS011;41329;41.594;23.810;2022-08-03T13:17:06;4.78;;;1.00;;
55465;SDS011;41329;41.594;23.810;2022-08-03T13:19:32;1.80;;;1.23;;
55465;SDS011;41329;41.594;23.810;2022-08-03T13:21:59;1.50;;;1.00;;
55465;SDS011;41329;41.594;23.810;2022-08-03T13:24:28;1.38;;;1.13;;
55465;SDS011;41329;41.594;23.810;2022-08-03T13:26:53;1.17;;;0.95;;
55465;SDS011;41329;41.594;23.810;2022-08-03T13:29:19;1.58;;;1.48;;
55465;SDS011;41329;41.594;23.810;2022-08-03T13:31:44;2.35;;;1.65;;
55465;SDS011;41329;41.594;23.810;2022-08-03T13:34:10;2.22;;;2.03;;
55465;SDS011;41329;41.594;23.810;2022-08-03T13:36:35;1.90;;;1.50;;
55465;SDS011;41329;41.594;23.810;2022-08-03T13:39:01;2.85;;;1.52;;
55465;SDS011;41329;41.594;23.810;2022-08-03T13:41:26;1.98;;;1.35;;
55465;SDS011;41329;41.594;23.810;2022-08-03T13:43:51;1.33;;;1.33;;
55465;SDS011;41329;41.594;23.810;2022-08-03T13:46:17;1.20;;;1.20;;
55465;SDS011;41329;41.594;23.810;2022-08-03T13:48:44;1.50;;;1.40;;
55465;SDS011;41329;41.594;23.810;2022-08-03T13:51:10;3.58;;;1.80;;
55465;SDS011;41329;41.594;23.810;2022-08-03T13:53:35;1.83;;;1.70;;
55465;SDS011;41329;41.594;23.810;2022-08-03T13:56:01;1.70;;;1.60;;
55465;SDS011;41329;41.594;23.810;2022-08-03T13:58:26;1.92;;;1.83;;
55465;SDS011;41329;41.594;23.810;2022-08-03T14:00:51;1.90;;;1.80;;
55465;SDS011;41329;41.594;23.810;2022-08-03T14:03:17;2.15;;;2.05;;
55465;SDS011;41329;41.594;23.810;2022-08-03T14:05:42;2.78;;;2.58;;
55465;SDS011;41329;41.594;23.810;2022-08-03T14:08:08;2.05;;;1.90;;
55465;SDS011;41329;41.594;23.810;2022-08-03T14:10:35;4.40;;;2.55;;
55465;SDS011;41329;41.594;23.810;2022-08-03T14:13:02;2.72;;;2.63;;
55465;SDS011;41329;41.594;23.810;2022-08-03T14:15:29;2.50;;;2.40;;
55465;SDS011;41329;41.594;23.810;2022-08-03T14:17:55;2.80;;;2.70;;
55465;SDS011;41329;41.594;23.810;2022-08-03T14:20:21;2.80;;;2.63;;
55465;SDS011;41329;41.594;23.810;2022-08-03T14:22:47;3.38;;;3.17;;
55465;SDS011;41329;41.594;23.810;2022-08-03T14:25:12;2.88;;;2.78;;
55465;SDS011;41329;41.594;23.810;2022-08-03T14:27:37;3.17;;;2.97;;
55465;SDS011;41329;41.594;23.810;2022-08-03T14:30:03;2.97;;;2.88;;
55465;SDS011;41329;41.594;23.810;2022-08-03T14:32:29;3.55;;;3.25;;
55465;SDS011;41329;41.594;23.810;2022-08-03T14:34:54;2.92;;;2.83;;
55465;SDS011;41329;41.594;23.810;2022-08-03T14:37:20;3.55;;;3.20;;
55465;SDS011;41329;41.594;23.810;2022-08-03T14:39:45;3.75;;;3.45;;
55465;SDS011;41329;41.594;23.810;2022-08-03T14:42:12;3.70;;;3.55;;
55465;SDS011;41329;41.594;23.810;2022-08-03T14:44:37;3.65;;;3.53;;
55465;SDS011;41329;41.594;23.810;2022-08-03T14:47:02;3.50;;;3.40;;
55465;SDS011;41329;41.594;23.810;2022-08-03T14:49:28;3.42;;;3.33;;
55465;SDS011;41329;41.594;23.810;2022-08-03T14:51:54;3.17;;;2.97;;
55465;SDS011;41329;41.594;23.810;2022-08-03T14:54:20;3.97;;;3.80;;
55465;SDS011;41329;41.594;23.810;2022-08-03T14:56:46;2.40;;;2.30;;
55465;SDS011;41329;41.594;23.810;2022-08-03T14:59:11;2.50;;;2.03;;
55465;SDS011;41329;41.594;23.810;2022-08-03T15:01:37;3.00;;;2.80;;
55465;SDS011;41329;41.594;23.810;2022-08-03T15:04:02;2.28;;;2.15;;
55465;SDS011;41329;41.594;23.810;2022-08-03T15:06:28;2.30;;;2.20;;
55465;SDS011;41329;41.594;23.810;2022-08-03T15:08:53;2.10;;;2.00;;
55465;SDS011;41329;41.594;23.810;2022-08-03T15:11:19;2.88;;;2.78;;
55465;SDS011;41329;41.594;23.810;2022-08-03T15:13:44;2.95;;;2.75;;
55465;SDS011;41329;41.594;23.810;2022-08-03T15:16:10;2.65;;;2.47;;
55465;SDS011;41329;41.594;23.810;2022-08-03T15:18:35;3.30;;;3.17;;
55465;SDS011;41329;41.594;23.810;2022-08-03T15:21:00;4.55;;;4.32;;
55465;SDS011;41329;41.594;23.810;2022-08-03T15:23:26;3.35;;;3.15;;
55465;SDS011;41329;41.594;23.810;2022-08-03T15:25:52;4.03;;;3.83;;
55465;SDS011;41329;41.594;23.810;2022-08-03T15:28:17;3.88;;;3.67;;
55465;SDS011;41329;41.594;23.810;2022-08-03T15:30:44;3.10;;;2.90;;
55465;SDS011;41329;41.594;23.810;2022-08-03T15:33:09;3.50;;;3.40;;
55465;SDS011;41329;41.594;23.810;2022-08-03T15:35:35;3.20;;;3.00;;
55465;SDS011;41329;41.594;23.810;2022-08-03T15:38:00;3.53;;;3.33;;
55465;SDS011;41329;41.594;23.810;2022-08-03T15:40:26;3.28;;;3.08;;
55465;SDS011;41329;41.594;23.810;2022-08-03T15:42:51;3.17;;;3.08;;
55465;SDS011;41329;41.594;23.810;2022-08-03T15:45:17;4.15;;;3.95;;
55465;SDS011;41329;41.594;23.810;2022-08-03T15:47:43;4.00;;;3.80;;
55465;SDS011;41329;41.594;23.810;2022-08-03T15:50:09;3.60;;;3.40;;
55465;SDS011;41329;41.594;23.810;2022-08-03T15:52:35;3.88;;;3.75;;
55465;SDS011;41329;41.594;23.810;2022-08-03T15:55:01;4.38;;;4.18;;
55465;SDS011;41329;41.594;23.810;2022-08-03T15:57:27;8.52;;;8.02;;